Time;durP1;ratioP1;P1;durP2;ratioP2;P2;SDS_P1;SDS_P2;PMS_P1;PMS_P2;Temp;Humidity;BMP_temperature;BMP_pressure;BME280_temperature;BME280_humidity;BME280_pressure;Samples;Min_cycle;Max_cycle;Signal;HPM_P1;HPM_P2
2023/05/02 00:01:30;;;;;;;;;;;;;;;9.99;80.59;100840.22;5017900;28;20486;-72
2023/05/02 00:04:34;;;;;;;;;;;;;;;9.95;80.72;100836.88;5030659;28;19927;-72
2023/05/02 00:07:37;;;;;;;;;;;;;;;9.96;81.16;100838.59;5031206;28;19925;-72
2023/05/02 00:10:40;;;;;;;;;;;;;;;9.96;80.49;100838.59;5028831;28;20284;-72
2023/05/02 00:13:43;;;;;;;;;;;;;;;9.87;80.45;100839.00;5029156;28;20404;-72
2023/05/02 00:16:47;;;;;;;;;;;;;;;9.82;80.72;100830.50;5029565;28;19925;-72
2023/05/02 00:19:50;;;;;;;;;;;;;;;9.79;81.05;100835.84;5029947;28;19970;-72
2023/05/02 00:22:54;;;;;;;;;;;;;;;9.78;81.08;100831.56;5030195;28;19947;-72
2023/05/02 00:25:56;;;;;;;;;;;;;;;9.73;80.81;100830.91;5018397;28;19928;-71
2023/05/02 00:29:00;;;;;;;;;;;;;;;9.65;81.15;100843.47;5028465;28;19924;-71
2023/05/02 00:32:04;;;;;;;;;;;;;;;9.62;81.46;100843.59;5016687;28;20389;-71
2023/05/02 00:35:07;;;;;;;;;;;;;;;9.62;81.63;100840.97;5017280;28;19924;-71
2023/05/02 00:38:11;;;;;;;;;;;;;;;9.57;81.84;100840.31;5029844;28;19927;-71
2023/05/02 00:41:15;;;;;;;;;;;;;;;9.57;81.73;100840.31;5030117;28;19924;-71
2023/05/02 00:44:18;;;;;;;;;;;;;;;9.48;82.26;100846.81;5018648;28;19924;-70
2023/05/02 00:47:21;;;;;;;;;;;;;;;9.46;82.33;100854.69;5028273;28;19944;-71
2023/05/02 00:50:26;;;;;;;;;;;;;;;9.48;82.28;100852.03;5028804;28;19923;-71
2023/05/02 00:53:29;;;;;;;;;;;;;;;9.47;82.66;100845.94;5012552;28;20026;-71
2023/05/02 00:56:33;;;;;;;;;;;;;;;9.52;82.16;100854.41;5012288;28;20444;-71
2023/05/02 00:59:36;;;;;;;;;;;;;;;9.51;81.56;100857.97;5012012;28;19943;-71
2023/05/02 01:02:50;;;;;;;;;;;;;;;9.50;81.98;100860.63;5012047;28;19928;-71
2023/05/02 01:06:02;;;;;;;;;;;;;;;9.45;82.29;100865.19;5012224;28;20388;-71
2023/05/02 01:09:09;;;;;;;;;;;;;;;9.41;82.44;100867.09;5012089;28;19968;-72
2023/05/02 01:12:15;;;;;;;;;;;;;;;9.42;82.15;100868.78;5011912;28;19970;-72
2023/05/02 01:15:20;;;;;;;;;;;;;;;9.38;82.29;100872.44;5011909;28;19928;-71
2023/05/02 01:18:28;;;;;;;;;;;;;;;9.31;82.86;100876.19;5011095;28;19924;-72
2023/05/02 01:21:32;;;;;;;;;;;;;;;9.30;82.64;100869.28;4998968;28;20047;-72
2023/05/02 01:24:47;;;;;;;;;;;;;;;9.30;82.38;100882.34;5011744;28;20446;-72
2023/05/02 01:28:00;;;;;;;;;;;;;;;9.25;82.24;100876.44;5010804;28;20480;-72
2023/05/02 01:31:04;;;;;;;;;;;;;;;9.22;82.51;100872.22;5010552;28;20458;-72
2023/05/02 01:34:09;;;;;;;;;;;;;;;9.17;82.31;100881.16;5010400;28;19970;-72
2023/05/02 01:37:13;;;;;;;;;;;;;;;9.15;82.45;100880.34;5010742;28;19924;-72
2023/05/02 01:40:18;;;;;;;;;;;;;;;9.10;82.50;100883.16;4987359;28;19961;-72
2023/05/02 01:43:22;;;;;;;;;;;;;;;9.04;82.86;100876.41;4998140;28;19948;-72
2023/05/02 01:46:27;;;;;;;;;;;;;;;9.03;82.84;100876.47;5010294;28;19924;-72
2023/05/02 01:49:31;;;;;;;;;;;;;;;8.98;83.00;100879.28;5010553;28;19924;-72
2023/05/02 01:52:36;;;;;;;;;;;;;;;8.97;83.04;100884.56;4998278;28;19955;-69
2023/05/02 01:55:40;;;;;;;;;;;;;;;8.95;82.83;100884.63;5011587;28;20462;-69
2023/05/02 01:58:44;;;;;;;;;;;;;;;8.92;82.86;100895.16;5011226;28;19943;-70
2023/05/02 02:01:49;;;;;;;;;;;;;;;8.88;83.05;100897.97;5081182;28;19973;-70
2023/05/02 02:04:53;;;;;;;;;;;;;;;8.95;82.58;100902.03;5081145;28;20394;-70
2023/05/02 02:07:57;;;;;;;;;;;;;;;8.94;82.36;100909.00;5093209;28;20039;-71
2023/05/02 02:11:12;;;;;;;;;;;;;;;8.87;82.52;100902.34;5093825;28;20011;-70
2023/05/02 02:14:20;;;;;;;;;;;;;;;8.85;82.27;100909.34;5081274;28;19923;-70
2023/05/02 02:17:38;;;;;;;;;;;;;;;8.80;82.50;100917.34;5081143;28;20012;-70
2023/05/02 02:20:42;;;;;;;;;;;;;;;8.75;83.01;100921.06;5081182;28;20012;-70
2023/05/02 02:23:46;;;;;;;;;;;;;;;8.73;82.81;100921.09;5080974;28;19943;-70
2023/05/02 02:26:50;;;;;;;;;;;;;;;8.71;82.64;100933.38;5093685;28;19922;-71
2023/05/02 02:29:53;;;;;;;;;;;;;;;8.65;83.05;100936.19;5093598;28;20382;-70
2023/05/02 02:32:56;;;;;;;;;;;;;;;8.66;83.22;100940.50;5093581;28;20330;-71
2023/05/02 02:36:22;;;;;;;;;;;;;;;8.66;82.77;100948.31;5093418;28;20378;-70
2023/05/02 02:39:25;;;;;;;;;;;;;;;8.64;82.91;100944.91;5081089;28;19923;-70
2023/05/02 02:42:39;;;;;;;;;;;;;;;8.63;82.66;100945.81;5104812;28;19988;-71
2023/05/02 02:45:49;;;;;;;;;;;;;;;8.60;82.95;100949.38;5114126;28;19982;-70
2023/05/02 02:49:22;;;;;;;;;;;;;;;8.60;82.59;100951.16;5113575;28;20428;-70
2023/05/02 02:52:28;;;;;;;;;;;;;;;8.54;82.93;100953.97;5101202;28;20444;-71
2023/05/02 02:55:49;;;;;;;;;;;;;;;8.49;83.44;100963.75;5117836;28;20115;-70
2023/05/02 02:59:04;;;;;;;;;;;;;;;8.46;83.48;100959.50;5099320;28;19968;-71
2023/05/02 03:02:08;;;;;;;;;;;;;;;8.50;83.39;100968.03;5013927;28;19974;-70
2023/05/02 03:05:12;;;;;;;;;;;;;;;8.47;83.27;100975.97;5061482;28;20408;-70
2023/05/02 03:08:15;;;;;;;;;;;;;;;8.52;82.99;100984.44;5061005;28;19928;-71
2023/05/02 03:11:18;;;;;;;;;;;;;;;8.54;82.80;100975.69;5060256;28;19925;-71
2023/05/02 03:14:21;;;;;;;;;;;;;;;8.49;82.88;100982.84;5056142;28;19929;-72
2023/05/02 03:17:24;;;;;;;;;;;;;;;8.45;83.46;100978.63;5058662;28;20013;-72
2023/05/02 03:20:27;;;;;;;;;;;;;;;8.41;83.49;100981.41;5059689;28;20408;-72
2023/05/02 03:23:30;;;;;;;;;;;;;;;8.38;83.34;100977.16;5009788;28;19974;-72
2023/05/02 03:26:33;;;;;;;;;;;;;;;8.37;83.30;100986.69;5057268;28;20395;-72
2023/05/02 03:29:36;;;;;;;;;;;;;;;8.39;83.83;100984.03;5057486;28;20005;-71
2023/05/02 03:32:39;;;;;;;;;;;;;;;8.44;83.64;100994.31;5058248;28;19925;-72
2023/05/02 03:35:43;;;;;;;;;;;;;;;8.47;83.49;100995.06;5059469;28;19928;-72
2023/05/02 03:38:48;;;;;;;;;;;;;;;8.50;83.81;101002.78;5058867;28;19970;-72
2023/05/02 03:41:52;;;;;;;;;;;;;;;8.51;83.38;101004.47;5056781;28;20009;-72
2023/05/02 03:45:00;;;;;;;;;;;;;;;8.58;83.53;101016.38;5010659;28;20408;-73
2023/05/02 03:48:05;;;;;;;;;;;;;;;8.58;83.69;101013.78;5057487;28;19932;-73
2023/05/02 03:51:08;;;;;;;;;;;;;;;8.60;84.24;101019.78;5059021;28;19924;-72
2023/05/02 03:54:17;;;;;;;;;;;;;;;8.68;84.19;101018.63;5057123;28;19943;-73
2023/05/02 03:57:20;;;;;;;;;;;;;;;8.71;84.47;101026.34;5059078;28;19925;-73
2023/05/02 04:00:24;;;;;;;;;;;;;;;8.76;84.33;101021.81;5038712;28;21313;-71
2023/05/02 04:03:34;;;;;;;;;;;;;;;8.68;84.46;101023.84;5006489;28;20335;-71
2023/05/02 04:06:38;;;;;;;;;;;;;;;8.66;85.16;101017.88;5020284;28;19943;-71
2023/05/02 04:09:43;;;;;;;;;;;;;;;8.73;85.58;101028.00;5009335;28;19929;-76
2023/05/02 04:12:48;;;;;;;;;;;;;;;8.80;85.13;101028.63;5000736;28;20454;-70
2023/05/02 04:16:26;;;;;;;;;;;;;;;8.81;85.41;101033.78;5000655;28;19925;-70
2023/05/02 04:19:30;;;;;;;;;;;;;;;8.94;85.14;101034.19;5000653;28;19982;-69
2023/05/02 04:22:33;;;;;;;;;;;;;;;8.97;85.00;101043.66;5000528;28;19978;-69
2023/05/02 04:25:40;;;;;;;;;;;;;;;9.03;84.76;101039.06;5000491;28;19940;-69
2023/05/02 04:28:43;;;;;;;;;;;;;;;9.04;84.94;101047.75;5000226;28;20002;-70
2023/05/02 04:31:50;;;;;;;;;;;;;;;9.08;84.75;101052.75;4989183;28;19970;-70
2023/05/02 04:34:53;;;;;;;;;;;;;;;9.08;84.94;101052.75;5000264;28;19924;-70
2023/05/02 04:37:58;;;;;;;;;;;;;;;9.12;84.61;101050.88;4999511;28;20010;-69
2023/05/02 04:41:08;;;;;;;;;;;;;;;9.11;84.84;101069.22;4998158;28;20333;-69
2023/05/02 04:44:16;;;;;;;;;;;;;;;9.16;85.03;101080.34;4998447;28;19928;-70
2023/05/02 04:47:21;;;;;;;;;;;;;;;9.18;84.78;101068.94;4998467;28;20025;-70
2023/05/02 04:50:26;;;;;;;;;;;;;;;9.20;84.83;101081.94;5010399;28;19925;-70
2023/05/02 04:53:29;;;;;;;;;;;;;;;9.23;85.00;101081.81;5010733;28;19978;-69
2023/05/02 04:56:33;;;;;;;;;;;;;;;9.23;85.05;101089.66;5000446;28;20046;-69
2023/05/02 04:59:37;;;;;;;;;;;;;;;9.27;85.17;101096.44;5019067;28;20293;-70
2023/05/02 05:07:00;;;;;;;;;;;;;;;9.30;85.26;101101.53;5031171;28;19970;-69
2023/05/02 05:10:05;;;;;;;;;;;;;;;9.31;85.39;101105.84;5019952;28;19942;-69
2023/05/02 05:13:16;;;;;;;;;;;;;;;9.34;85.43;101110.94;5019565;28;19968;-69
2023/05/02 05:16:20;;;;;;;;;;;;;;;9.37;85.40;101110.84;5018918;28;19924;-69
2023/05/02 05:19:25;;;;;;;;;;;;;;;9.39;85.79;101119.47;5019367;28;20395;-69
2023/05/02 05:22:28;;;;;;;;;;;;;;;9.26;86.42;101119.06;5019508;28;20013;-69
2023/05/02 05:25:32;;;;;;;;;;;;;;;9.31;86.34;101118.88;5017751;28;19970;-69
2023/05/02 05:28:36;;;;;;;;;;;;;;;9.39;86.61;101114.25;5018657;28;19924;-69
2023/05/02 05:31:40;;;;;;;;;;;;;;;9.49;86.39;101120.81;5018676;28;20015;-69
2023/05/02 05:34:44;;;;;;;;;;;;;;;9.56;86.31;101126.66;5019235;28;19978;-69
2023/05/02 05:37:49;;;;;;;;;;;;;;;9.59;85.87;101129.13;5019211;28;19927;-69
2023/05/02 05:40:53;;;;;;;;;;;;;;;9.64;86.01;101123.75;5019301;28;19924;-69
2023/05/02 05:43:56;;;;;;;;;;;;;;;9.71;86.48;101130.44;5019012;28;19982;-69
2023/05/02 05:47:02;;;;;;;;;;;;;;;9.75;86.56;101134.63;5018904;28;19925;-69
2023/05/02 05:50:06;;;;;;;;;;;;;;;9.78;86.42;101131.88;5007706;28;19987;-69
2023/05/02 05:53:08;;;;;;;;;;;;;;;9.85;86.32;101138.56;5018895;28;19928;-69
2023/05/02 05:56:14;;;;;;;;;;;;;;;9.90;86.00;101143.63;5019042;28;19924;-69
2023/05/02 05:59:23;;;;;;;;;;;;;;;9.93;86.04;101148.72;5018565;28;19944;-69
2023/05/02 06:02:26;;;;;;;;;;;;;;;9.96;86.21;101151.22;5018925;28;20330;-69
2023/05/02 06:05:30;;;;;;;;;;;;;;;9.97;86.31;101148.53;5018885;28;20432;-70
2023/05/02 06:08:36;;;;;;;;;;;;;;;10.01;86.62;101155.31;5018088;28;21814;-69
2023/05/02 06:11:41;;;;;;;;;;;;;;;10.07;86.47;101150.78;5030840;28;19981;-69
2023/05/02 06:14:44;;;;;;;;;;;;;;;10.11;86.57;101162.81;5018586;28;19923;-69
2023/05/02 06:17:52;;;;;;;;;;;;;;;10.15;86.76;101161.78;5018967;28;19939;-69
2023/05/02 06:20:55;;;;;;;;;;;;;;;10.18;86.50;101172.13;5018949;28;20326;-69
2023/05/02 06:23:59;;;;;;;;;;;;;;;10.22;86.45;101176.31;5030676;28;20522;-69
2023/05/02 06:27:02;;;;;;;;;;;;;;;10.28;86.72;101183.09;5030458;28;19982;-69
2023/05/02 06:30:05;;;;;;;;;;;;;;;10.29;86.32;101180.41;5030637;28;19924;-68
2023/05/02 06:33:11;;;;;;;;;;;;;;;10.32;86.38;101192.50;5030456;28;19923;-68
2023/05/02 06:36:14;;;;;;;;;;;;;;;10.35;86.32;101195.00;5030942;28;20288;-68
2023/05/02 06:39:37;;;;;;;;;;;;;;;10.38;86.59;101200.09;5030468;28;19944;-68
2023/05/02 06:42:41;;;;;;;;;;;;;;;10.35;87.26;101214.13;5030346;28;19937;-68
2023/05/02 06:45:44;;;;;;;;;;;;;;;10.45;87.31;101212.84;5030331;28;20425;-68
2023/05/02 06:48:47;;;;;;;;;;;;;;;10.50;87.11;101224.88;5017809;28;19944;-68
2023/05/02 06:51:50;;;;;;;;;;;;;;;10.58;86.35;101228.03;5030212;28;20338;-68
2023/05/02 06:54:53;;;;;;;;;;;;;;;10.61;85.87;101222.69;5030263;28;20391;-68
2023/05/02 06:57:56;;;;;;;;;;;;;;;10.71;85.49;101227.44;5030456;28;20008;-68
2023/05/02 07:00:59;;;;;;;;;;;;;;;10.80;84.86;101223.59;5029973;28;19928;-68
2023/05/02 07:04:05;;;;;;;;;;;;;;;10.85;83.42;101237.38;5029492;28;20001;-68
2023/05/02 07:07:08;;;;;;;;;;;;;;;10.97;83.28;101240.34;5028347;28;19924;-68
2023/05/02 07:10:11;;;;;;;;;;;;;;;10.96;82.92;101243.91;5028318;28;19979;-68
2023/05/02 07:13:15;;;;;;;;;;;;;;;10.93;81.76;101253.56;5028056;28;19924;-68
2023/05/02 07:16:18;;;;;;;;;;;;;;;10.93;81.76;101253.56;5028083;28;20280;-68
2023/05/02 07:19:21;;;;;;;;;;;;;;;10.93;81.94;101261.41;5028377;28;19927;-68
2023/05/02 07:22:24;;;;;;;;;;;;;;;11.07;82.48;101263.47;5030019;28;19928;-68
2023/05/02 07:25:27;;;;;;;;;;;;;;;11.21;82.32;101265.50;5029868;28;20016;-68
2023/05/02 07:28:30;;;;;;;;;;;;;;;11.26;81.69;101267.91;5029841;28;19979;-68
2023/05/02 07:31:33;;;;;;;;;;;;;;;11.32;81.54;101276.34;5029764;28;19963;-68
2023/05/02 07:34:36;;;;;;;;;;;;;;;11.36;81.44;101264.84;5029763;28;19940;-68
2023/05/02 07:37:39;;;;;;;;;;;;;;;11.49;81.57;101269.53;5029768;28;19924;-69
2023/05/02 07:40:42;;;;;;;;;;;;;;;11.51;81.15;101275.53;5033156;28;20292;-68
2023/05/02 07:43:45;;;;;;;;;;;;;;;11.59;80.42;101271.66;5033034;28;19928;-68
2023/05/02 07:46:48;;;;;;;;;;;;;;;11.57;79.35;101272.66;5032352;28;19923;-68
2023/05/02 07:49:51;;;;;;;;;;;;;;;11.67;79.95;101273.94;5031686;28;20440;-69
2023/05/02 07:52:54;;;;;;;;;;;;;;;11.77;78.73;101280.50;5031823;28;19962;-68
2023/05/02 07:55:57;;;;;;;;;;;;;;;11.59;78.40;101276.06;5031959;28;20026;-68
2023/05/02 07:59:01;;;;;;;;;;;;;;;11.69;78.90;101272.09;5032096;28;20408;-68
2023/05/02 08:02:04;;;;;;;;;;;;;;;11.75;78.05;101271.84;5031729;28;19967;-68
2023/05/02 08:05:08;;;;;;;;;;;;;;;11.85;78.30;101277.53;5032679;28;19924;-68
2023/05/02 08:08:10;;;;;;;;;;;;;;;11.98;77.66;101270.81;5032773;28;20353;-68
2023/05/02 08:11:13;;;;;;;;;;;;;;;11.99;76.77;101274.28;5032721;28;20005;-68
2023/05/02 08:14:17;;;;;;;;;;;;;;;11.94;75.63;101271.03;5020675;28;19924;-68
2023/05/02 08:17:20;;;;;;;;;;;;;;;11.97;75.87;101274.34;5032582;28;19928;-68
2023/05/02 08:20:23;;;;;;;;;;;;;;;12.01;74.79;101277.69;5032866;28;19981;-68
2023/05/02 08:23:26;;;;;;;;;;;;;;;12.17;75.57;101277.81;5032388;28;20028;-68
2023/05/02 08:26:29;;;;;;;;;;;;;;;12.32;74.09;101282.34;5032501;28;20020;-68
2023/05/02 08:29:32;;;;;;;;;;;;;;;12.41;72.99;101278.41;5032394;28;19928;-69
2023/05/02 08:32:35;;;;;;;;;;;;;;;12.46;72.84;101282.53;5032343;28;19963;-68
2023/05/02 08:35:38;;;;;;;;;;;;;;;12.58;72.87;101283.72;5032630;28;19925;-69
2023/05/02 08:38:41;;;;;;;;;;;;;;;12.68;72.23;101287.59;5032254;28;20016;-69
2023/05/02 08:41:45;;;;;;;;;;;;;;;12.65;71.67;101279.03;5032104;28;20296;-68
2023/05/02 08:44:48;;;;;;;;;;;;;;;12.71;71.68;101283.97;5032222;28;19924;-69
2023/05/02 08:47:51;;;;;;;;;;;;;;;12.80;71.52;101287.00;5032132;28;20046;-69
2023/05/02 08:50:54;;;;;;;;;;;;;;;12.99;70.50;101286.09;5030804;28;20034;-68
2023/05/02 08:53:58;;;;;;;;;;;;;;;12.95;70.01;101285.34;5032248;28;19970;-69
2023/05/02 08:57:02;;;;;;;;;;;;;;;13.03;68.32;101288.47;5032055;28;20407;-69
2023/05/02 09:00:06;;;;;;;;;;;;;;;13.00;69.39;101293.03;5031790;28;19994;-68
2023/05/02 09:03:20;;;;;;;;;;;;;;;13.12;69.66;101300.28;5031828;28;19927;-69
2023/05/02 09:06:23;;;;;;;;;;;;;;;13.10;68.84;101296.88;5031874;28;20057;-68
2023/05/02 09:09:27;;;;;;;;;;;;;;;13.15;68.89;101299.28;5031847;28;19923;-69
2023/05/02 09:12:30;;;;;;;;;;;;;;;13.22;69.12;101296.25;5031759;28;20284;-69
2023/05/02 09:15:33;;;;;;;;;;;;;;;13.40;67.90;101302.38;5031856;28;19924;-69
2023/05/02 09:18:38;;;;;;;;;;;;;;;13.56;67.76;101293.69;5031599;28;20005;-68
2023/05/02 09:21:42;;;;;;;;;;;;;;;13.81;67.79;101295.88;5031525;28;19993;-69
2023/05/02 09:24:52;;;;;;;;;;;;;;;13.95;66.02;101285.47;5031506;28;20310;-69
2023/05/02 09:27:55;;;;;;;;;;;;;;;14.08;65.62;101290.91;5031420;28;20008;-69
2023/05/02 09:31:05;;;;;;;;;;;;;;;13.81;66.04;101291.44;5031429;28;20024;-69
2023/05/02 09:34:09;;;;;;;;;;;;;;;13.82;67.32;101300.22;5031461;28;19924;-69
2023/05/02 09:37:32;;;;;;;;;;;;;;;13.78;66.20;101303.91;5031346;28;19924;-69
2023/05/02 09:40:36;;;;;;;;;;;;;;;13.47;66.28;101302.91;5031365;28;20423;-69
2023/05/02 09:43:40;;;;;;;;;;;;;;;13.40;67.08;101305.00;5031217;28;19928;-69
2023/05/02 09:46:47;;;;;;;;;;;;;;;13.43;67.40;101298.72;5031226;28;20354;-69
2023/05/02 09:49:49;;;;;;;;;;;;;;;13.67;67.39;101299.25;5031266;28;19924;-69
2023/05/02 09:52:59;;;;;;;;;;;;;;;13.78;66.35;101303.91;5031172;28;19924;-69
2023/05/02 09:56:03;;;;;;;;;;;;;;;13.88;64.65;101294.59;5031155;28;20029;-69
2023/05/02 09:59:13;;;;;;;;;;;;;;;14.12;64.43;101290.66;5030860;28;19932;-69
2023/05/02 10:02:16;;;;;;;;;;;;;;;14.45;64.78;101284.44;5030380;28;20434;-69
2023/05/02 10:05:20;;;;;;;;;;;;;;;14.59;62.65;101287.19;5031257;28;19924;-72
2023/05/02 10:08:27;;;;;;;;;;;;;;;14.73;61.84;101288.16;5029855;28;19964;-73
2023/05/02 10:11:31;;;;;;;;;;;;;;;14.69;61.56;101289.28;5010033;28;19925;-72
2023/05/02 10:14:38;;;;;;;;;;;;;;;14.63;59.51;101291.31;4996659;28;19924;-69
2023/05/02 10:17:46;;;;;;;;;;;;;;;14.46;59.88;101309.84;5009015;28;19928;-70
2023/05/02 10:21:16;;;;;;;;;;;;;;;13.95;61.66;101328.38;5009078;28;20502;-71
2023/05/02 10:24:19;;;;;;;;;;;;;;;13.62;62.88;101338.88;5009476;28;19928;-70
2023/05/02 10:27:23;;;;;;;;;;;;;;;13.46;65.72;101335.34;5009869;28;19923;-71
2023/05/02 10:30:26;;;;;;;;;;;;;;;13.30;68.21;101348.41;5010935;28;20066;-71
2023/05/02 10:33:30;;;;;;;;;;;;;;;13.11;70.55;101356.31;5010837;28;19924;-70
2023/05/02 10:36:33;;;;;;;;;;;;;;;13.08;72.85;101363.50;5011085;28;19956;-71
2023/05/02 10:39:37;;;;;;;;;;;;;;;12.97;75.69;101372.78;5011008;28;19970;-71
2023/05/02 10:42:45;;;;;;;;;;;;;;;12.81;75.94;101363.94;5010051;28;20416;-74
2023/05/02 10:45:47;;;;;;;;;;;;;;;12.84;76.75;101362.94;5009908;28;19940;-71
2023/05/02 10:49:01;;;;;;;;;;;;;;;13.01;78.55;101355.09;5010110;28;20415;-72
2023/05/02 10:52:24;;;;;;;;;;;;;;;13.25;78.32;101359.16;5010171;28;19970;-72
2023/05/02 10:55:27;;;;;;;;;;;;;;;13.22;76.20;101353.19;5010594;28;19925;-72
2023/05/02 10:58:30;;;;;;;;;;;;;;;13.42;77.30;101353.06;5010482;28;19940;-72
2023/05/02 11:01:35;;;;;;;;;;;;;;;13.54;75.21;101345.47;4998487;28;20021;-71
2023/05/02 11:04:57;;;;;;;;;;;;;;;13.45;74.89;101352.06;5010414;28;20400;-71
2023/05/02 11:08:15;;;;;;;;;;;;;;;13.53;74.17;101349.91;5010685;28;19925;-72
2023/05/02 11:11:38;;;;;;;;;;;;;;;13.52;74.26;101347.31;5009793;28;20330;-73
2023/05/02 11:14:42;;;;;;;;;;;;;;;13.39;74.93;101344.47;5012509;28;19929;-72
2023/05/02 11:17:57;;;;;;;;;;;;;;;13.41;74.76;101342.63;5013744;28;19925;-71
2023/05/02 11:21:19;;;;;;;;;;;;;;;13.36;74.83;101344.63;5013938;28;19974;-72
2023/05/02 11:24:36;;;;;;;;;;;;;;;13.25;72.79;101343.41;5013610;28;19928;-71
2023/05/02 11:27:42;;;;;;;;;;;;;;;13.28;73.81;101333.69;5013656;28;19979;-71
2023/05/02 11:30:47;;;;;;;;;;;;;;;13.12;71.12;101323.91;5013487;28;19999;-72
2023/05/02 11:33:57;;;;;;;;;;;;;;;13.45;74.03;101325.78;5013492;28;20379;-72
2023/05/02 11:36:59;;;;;;;;;;;;;;;13.66;68.58;101323.81;5013518;28;19925;-72
2023/05/02 11:40:09;;;;;;;;;;;;;;;13.72;67.59;101332.25;5013484;28;20343;-72
2023/05/02 11:43:13;;;;;;;;;;;;;;;13.79;68.08;101326.66;5013418;28;19975;-71
2023/05/02 11:46:19;;;;;;;;;;;;;;;13.71;67.69;101343.66;5013359;28;19944;-72
2023/05/02 11:49:22;;;;;;;;;;;;;;;13.66;67.00;101345.69;5013319;28;20330;-72
2023/05/02 11:52:24;;;;;;;;;;;;;;;13.91;67.34;101341.75;5013236;28;19972;-72
2023/05/02 11:55:28;;;;;;;;;;;;;;;14.05;66.82;101348.94;5013252;28;19924;-72
2023/05/02 11:58:32;;;;;;;;;;;;;;;14.32;66.40;101349.19;5013300;28;20331;-78
2023/05/02 12:01:35;;;;;;;;;;;;;;;14.45;65.38;101338.84;5012294;28;19968;-77
2023/05/02 12:04:43;;;;;;;;;;;;;;;14.59;62.90;101347.72;5012953;28;19929;-73
2023/05/02 12:07:49;;;;;;;;;;;;;;;14.72;63.71;101344.41;5011248;28;19932;-73
2023/05/02 12:10:55;;;;;;;;;;;;;;;14.89;61.78;101341.63;5012512;28;19925;-72
2023/05/02 12:13:59;;;;;;;;;;;;;;;15.02;61.97;101353.16;5013151;28;19942;-74
2023/05/02 12:17:02;;;;;;;;;;;;;;;15.06;60.18;101345.94;5013075;28;20005;-74
2023/05/02 12:20:08;;;;;;;;;;;;;;;14.90;57.38;101343.34;4999014;28;19939;-74
2023/05/02 12:23:13;;;;;;;;;;;;;;;14.91;57.39;101347.69;5013903;28;19976;-80
2023/05/02 12:26:20;;;;;;;;;;;;;;;14.79;55.85;101358.91;5012137;28;19951;-75
2023/05/02 12:29:36;;;;;;;;;;;;;;;15.02;55.90;101362.84;5012580;28;19927;-74
2023/05/02 12:32:44;;;;;;;;;;;;;;;15.29;57.28;101356.00;5011709;28;20421;-75
2023/05/02 12:35:49;;;;;;;;;;;;;;;15.64;55.68;101363.59;5011179;28;19940;-74
2023/05/02 12:38:58;;;;;;;;;;;;;;;15.39;55.35;101374.75;5012526;28;19970;-77
2023/05/02 12:42:14;;;;;;;;;;;;;;;15.35;56.18;101381.97;5012422;28;20130;-73
2023/05/02 12:45:17;;;;;;;;;;;;;;;15.57;55.40;101381.56;5012308;28;20429;-73
2023/05/02 12:48:21;;;;;;;;;;;;;;;15.64;54.07;101382.03;5012334;28;20030;-72
2023/05/02 12:51:24;;;;;;;;;;;;;;;15.38;55.84;101375.69;5022489;28;20345;-73
2023/05/02 12:54:28;;;;;;;;;;;;;;;15.47;55.33;101387.44;5031126;28;19962;-74
2023/05/02 12:57:31;;;;;;;;;;;;;;;15.55;54.83;101388.72;5032022;28;20053;-74
2023/05/02 13:00:36;;;;;;;;;;;;;;;15.66;54.53;101392.47;5031291;28;19928;-74
2023/05/02 13:03:41;;;;;;;;;;;;;;;15.99;54.50;101408.94;5018596;28;19944;-74
2023/05/02 13:06:45;;;;;;;;;;;;;;;16.08;52.87;101407.56;5028249;28;20646;-73
2023/05/02 13:09:49;;;;;;;;;;;;;;;16.18;51.89;101410.47;5031459;28;20319;-74
2023/05/02 13:12:53;;;;;;;;;;;;;;;15.79;52.92;101414.56;5031975;28;19940;-74
2023/05/02 13:15:56;;;;;;;;;;;;;;;15.35;53.48;101418.03;5031625;28;19969;-74
2023/05/02 13:19:00;;;;;;;;;;;;;;;14.71;55.15;101424.28;5031529;28;19969;-74
2023/05/02 13:22:04;;;;;;;;;;;;;;;14.64;55.49;101426.41;5018334;28;19924;-74
2023/05/02 13:25:07;;;;;;;;;;;;;;;14.51;56.20;101420.13;5031589;28;19970;-74
2023/05/02 13:28:11;;;;;;;;;;;;;;;14.74;56.02;101425.00;5031547;28;19986;-74
2023/05/02 13:31:14;;;;;;;;;;;;;;;14.95;55.82;101433.47;5030518;28;19940;-74
2023/05/02 13:34:21;;;;;;;;;;;;;;;14.81;56.37;101426.34;5031679;28;19924;-75
2023/05/02 13:37:26;;;;;;;;;;;;;;;14.76;56.75;101430.16;5017057;28;19971;-75
2023/05/02 13:40:29;;;;;;;;;;;;;;;14.95;56.52;101422.09;5029212;28;19924;-75
2023/05/02 13:43:32;;;;;;;;;;;;;;;14.85;54.68;101425.22;5030332;28;19993;-75
2023/05/02 13:46:36;;;;;;;;;;;;;;;15.05;55.53;101421.47;5030707;28;19944;-74
2023/05/02 13:49:39;;;;;;;;;;;;;;;15.57;52.80;101422.88;5018606;28;19960;-75
2023/05/02 13:52:43;;;;;;;;;;;;;;;15.95;50.14;101423.28;5031357;28;19924;-75
2023/05/02 13:55:46;;;;;;;;;;;;;;;16.14;49.56;101427.41;5031122;28;19978;-75
2023/05/02 13:58:49;;;;;;;;;;;;;;;16.89;47.72;101414.81;5030901;28;20296;-75
2023/05/02 14:01:53;;;;;;;;;;;;;;;17.93;43.69;101417.59;5031028;28;20379;-75
2023/05/02 14:04:56;;;;;;;;;;;;;;;20.25;39.12;101404.03;5030939;28;19956;-74
2023/05/02 14:08:00;;;;;;;;;;;;;;;21.94;37.50;101407.75;5030908;28;19924;-75
2023/05/02 14:11:03;;;;;;;;;;;;;;;23.56;32.28;101396.88;5030936;28;20367;-75
2023/05/02 14:14:07;;;;;;;;;;;;;;;22.33;33.67;101415.09;5030218;28;19969;-75
2023/05/02 14:17:10;;;;;;;;;;;;;;;20.46;36.17;101415.59;5029699;28;19924;-75
2023/05/02 14:20:13;;;;;;;;;;;;;;;19.62;38.83;101416.81;5030051;28;19924;-75
2023/05/02 14:23:16;;;;;;;;;;;;;;;18.91;38.88;101426.56;5030645;28;19987;-76
2023/05/02 14:26:20;;;;;;;;;;;;;;;20.87;36.05;101424.75;5030726;28;19924;-74
2023/05/02 14:29:22;;;;;;;;;;;;;;;21.36;35.21;101428.69;5030254;28;19970;-75
2023/05/02 14:32:26;;;;;;;;;;;;;;;24.40;31.10;101420.91;5030554;28;19924;-76
2023/05/02 14:35:30;;;;;;;;;;;;;;;22.64;31.05;101427.41;5030464;28;20007;-75
2023/05/02 14:38:33;;;;;;;;;;;;;;;21.64;34.05;101431.69;5018465;28;19923;-74
2023/05/02 14:41:36;;;;;;;;;;;;;;;20.80;35.24;101442.13;5030759;28;20341;-75
2023/05/02 14:44:42;;;;;;;;;;;;;;;20.29;36.35;101442.63;5030451;28;19946;-74
2023/05/02 14:47:46;;;;;;;;;;;;;;;19.79;37.44;101439.47;5029925;28;20023;-74
2023/05/02 14:50:49;;;;;;;;;;;;;;;18.61;40.22;101454.28;5030398;28;19967;-74
2023/05/02 14:53:53;;;;;;;;;;;;;;;17.76;42.55;101459.25;5030343;28;19959;-74
2023/05/02 14:56:56;;;;;;;;;;;;;;;16.99;43.88;101450.25;5030123;28;19924;-73
2023/05/02 14:59:59;;;;;;;;;;;;;;;16.65;44.66;101454.16;5029900;28;20058;-74
2023/05/02 15:03:06;;;;;;;;;;;;;;;16.40;45.74;101455.72;5030126;28;20303;-73
2023/05/02 15:06:09;;;;;;;;;;;;;;;16.69;44.86;101456.53;5029329;28;20419;-73
2023/05/02 15:09:13;;;;;;;;;;;;;;;16.39;46.33;101447.88;5028975;28;19924;-73
2023/05/02 15:12:42;;;;;;;;;;;;;;;16.54;45.46;101448.72;5030379;28;19958;-73
2023/05/02 15:15:48;;;;;;;;;;;;;;;16.73;46.34;101457.16;5029998;28;19961;-72
2023/05/02 15:18:51;;;;;;;;;;;;;;;17.83;43.95;101449.97;5029958;28;20445;-73
2023/05/02 15:21:56;;;;;;;;;;;;;;;19.32;40.26;101446.50;5017160;28;19924;-73
2023/05/02 15:24:59;;;;;;;;;;;;;;;18.35;40.10;101456.13;5028875;28;19973;-74
2023/05/02 15:28:02;;;;;;;;;;;;;;;17.96;42.62;101459.72;5029803;28;19940;-74
2023/05/02 15:31:06;;;;;;;;;;;;;;;20.41;39.14;101452.28;5029838;28;19924;-74
2023/05/02 15:34:12;;;;;;;;;;;;;;;20.11;36.98;101448.44;5029788;28;19924;-74
2023/05/02 15:37:15;;;;;;;;;;;;;;;20.76;36.08;101454.81;5017589;28;19924;-74
2023/05/02 15:40:19;;;;;;;;;;;;;;;22.48;33.13;101456.41;5012450;28;19924;-75
2023/05/02 15:43:22;;;;;;;;;;;;;;;22.72;30.97;101451.56;5009968;28;19936;-75
2023/05/02 15:46:39;;;;;;;;;;;;;;;23.20;30.63;101442.81;5113106;28;20436;-75
2023/05/02 15:50:06;;;;;;;;;;;;;;;24.71;29.02;101442.88;5110230;28;20291;-76
2023/05/02 15:53:14;;;;;;;;;;;;;;;25.40;28.06;101443.22;5043132;28;19986;-76
2023/05/02 15:56:27;;;;;;;;;;;;;;;25.17;27.38;101441.00;5008210;28;19924;-75
2023/05/02 15:59:31;;;;;;;;;;;;;;;24.34;28.32;101443.72;5028001;28;19927;-75
2023/05/02 16:02:36;;;;;;;;;;;;;;;21.95;30.80;101452.06;5020344;28;19932;-76